메인 페이지
METAR-TAF:

METAR-TAF

공항 :

마데이라 공항

푼샬, 마데이라 제도, 포르투갈

위도: 32-41-52N, 경도: 016-46-28W, 고도: 59m

현재 날씨관측

예보는 44분 전, 12:00시(UTC)에 발표되었습니다.
12kt북서풍과 북동풍을 오가는
온도 23°C
습도 65%
기압 1017 hPa
시정 10km 이상
고도 1500ft 상공 구름 조금

METAR: LPMA 291200Z 36012KT 320V040 9999 FEW015 23/16 Q1017

시각: 13:44 (12:44 UTC)

예보

예보는 1 시간 44분 전, 11:00시(UTC)에 발표되었습니다.
예보 대상 시간: 29일 12시부터 30일 12시까지 (UTC)
13kt
시정 10km 이상
고도 1500ft 상공 구름 보통
확률 30%
29일 12시부터 29일 18시까지 (UTC)
남서8kt

TAF: LPMA 291100Z 2912/3012 01013KT 9999 SCT015 PROB30 2912/2918 23008KT

4,000개 이상의 공항 관측 자료 및 예보 (METAR 및 TAF 보고).

지도상에서 검색 가능한 기상관측소가 노란 점과 빨간 점으로 표시되어 있습니다.

기상관측소 명을 보려면 표시 위로 마우스를 이동하세요.

날씨 관측과 예보를 보려면 클릭하세요.

지도 변경 : 확대하려면 엑스 표시가 있는 녹색 버튼, 축소하려면 빼기 표시가 있는 녹색 버튼, 다음 페이지의 지도를 보려면 녹색 화살표를 클릭하세요.


METAR-TAF: